sensor_id;sensor_type;location;lat;lon;timestamp;temperature;humidity
2056;DHT22;1033;52.560;13.374;2022-10-31T00:01:58;12.60;99.90
2056;DHT22;1033;52.560;13.374;2022-10-31T00:04:27;12.40;1.00
2056;DHT22;1033;52.560;13.374;2022-10-31T00:06:55;12.30;99.90
2056;DHT22;1033;52.560;13.374;2022-10-31T00:09:26;12.10;99.90
2056;DHT22;1033;52.560;13.374;2022-10-31T00:11:55;12.20;99.90
2056;DHT22;1033;52.560;13.374;2022-10-31T00:14:24;12.40;99.90
2056;DHT22;1033;52.560;13.374;2022-10-31T00:16:52;12.60;99.90
2056;DHT22;1033;52.560;13.374;2022-10-31T00:19:21;12.80;99.90
2056;DHT22;1033;52.560;13.374;2022-10-31T00:21:51;13.30;99.90
2056;DHT22;1033;52.560;13.374;2022-10-31T00:24:20;13.50;99.90
2056;DHT22;1033;52.560;13.374;2022-10-31T00:26:50;13.70;99.90
2056;DHT22;1033;52.560;13.374;2022-10-31T00:29:21;13.60;99.90
2056;DHT22;1033;52.560;13.374;2022-10-31T00:31:50;13.60;99.90
2056;DHT22;1033;52.560;13.374;2022-10-31T00:34:20;13.40;99.90
2056;DHT22;1033;52.560;13.374;2022-10-31T00:36:48;13.10;99.90
2056;DHT22;1033;52.560;13.374;2022-10-31T00:39:17;13.00;99.90
2056;DHT22;1033;52.560;13.374;2022-10-31T00:41:46;12.90;99.90
2056;DHT22;1033;52.560;13.374;2022-10-31T00:44:16;12.90;99.90
2056;DHT22;1033;52.560;13.374;2022-10-31T00:46:45;12.90;99.90
2056;DHT22;1033;52.560;13.374;2022-10-31T00:49:14;12.80;99.90
2056;DHT22;1033;52.560;13.374;2022-10-31T00:51:43;12.80;99.90
2056;DHT22;1033;52.560;13.374;2022-10-31T00:54:11;12.90;99.90
2056;DHT22;1033;52.560;13.374;2022-10-31T00:56:40;13.10;99.90
2056;DHT22;1033;52.560;13.374;2022-10-31T00:59:09;13.20;99.90
2056;DHT22;1033;52.560;13.374;2022-10-31T01:01:39;13.40;99.90
2056;DHT22;1033;52.560;13.374;2022-10-31T01:04:08;13.40;99.90
2056;DHT22;1033;52.560;13.374;2022-10-31T01:06:37;13.30;99.90
2056;DHT22;1033;52.560;13.374;2022-10-31T01:09:05;13.40;99.90
2056;DHT22;1033;52.560;13.374;2022-10-31T01:11:34;13.40;99.90
2056;DHT22;1033;52.560;13.374;2022-10-31T01:14:06;13.40;99.90
2056;DHT22;1033;52.560;13.374;2022-10-31T01:16:36;13.30;99.90
2056;DHT22;1033;52.560;13.374;2022-10-31T01:19:06;13.30;99.90
2056;DHT22;1033;52.560;13.374;2022-10-31T01:21:35;13.30;99.90
2056;DHT22;1033;52.560;13.374;2022-10-31T01:24:05;13.40;99.90
2056;DHT22;1033;52.560;13.374;2022-10-31T01:26:37;13.40;99.90
2056;DHT22;1033;52.560;13.374;2022-10-31T01:29:07;13.50;99.90
2056;DHT22;1033;52.560;13.374;2022-10-31T01:31:38;13.40;99.90
2056;DHT22;1033;52.560;13.374;2022-10-31T01:34:13;13.40;99.90
2056;DHT22;1033;52.560;13.374;2022-10-31T01:36:44;13.40;99.90
2056;DHT22;1033;52.560;13.374;2022-10-31T01:39:18;13.40;99.90
2056;DHT22;1033;52.560;13.374;2022-10-31T01:41:49;13.60;99.90
2056;DHT22;1033;52.560;13.374;2022-10-31T01:44:48;13.60;99.90
2056;DHT22;1033;52.560;13.374;2022-10-31T01:47:26;13.80;99.90
2056;DHT22;1033;52.560;13.374;2022-10-31T01:50:20;13.90;99.90
2056;DHT22;1033;52.560;13.374;2022-10-31T01:53:00;13.60;99.90
2056;DHT22;1033;52.560;13.374;2022-10-31T01:55:35;13.60;99.90
2056;DHT22;1033;52.560;13.374;2022-10-31T01:58:10;14.00;99.90
2056;DHT22;1033;52.560;13.374;2022-10-31T02:00:48;14.00;99.90
2056;DHT22;1033;52.560;13.374;2022-10-31T02:03:22;13.80;99.90
2056;DHT22;1033;52.560;13.374;2022-10-31T02:05:55;13.90;99.90
2056;DHT22;1033;52.560;13.374;2022-10-31T02:08:27;13.80;99.90
2056;DHT22;1033;52.560;13.374;2022-10-31T02:10:58;13.80;99.90
2056;DHT22;1033;52.560;13.374;2022-10-31T02:13:29;13.80;99.90
2056;DHT22;1033;52.560;13.374;2022-10-31T02:15:58;13.60;99.90
2056;DHT22;1033;52.560;13.374;2022-10-31T02:18:29;13.40;99.90
2056;DHT22;1033;52.560;13.374;2022-10-31T02:21:06;13.30;99.90
2056;DHT22;1033;52.560;13.374;2022-10-31T02:24:14;13.30;99.90
2056;DHT22;1033;52.560;13.374;2022-10-31T02:30:09;13.30;99.90
2056;DHT22;1033;52.560;13.374;2022-10-31T02:33:02;13.40;99.90
2056;DHT22;1033;52.560;13.374;2022-10-31T02:35:50;13.30;99.90
2056;DHT22;1033;52.560;13.374;2022-10-31T02:38:38;13.20;99.90
2056;DHT22;1033;52.560;13.374;2022-10-31T02:41:31;13.20;99.90
2056;DHT22;1033;52.560;13.374;2022-10-31T02:44:15;13.30;99.90
2056;DHT22;1033;52.560;13.374;2022-10-31T02:46:54;13.20;99.90
2056;DHT22;1033;52.560;13.374;2022-10-31T02:49:33;13.10;99.90
2056;DHT22;1033;52.560;13.374;2022-10-31T02:52:17;13.20;99.90
2056;DHT22;1033;52.560;13.374;2022-10-31T02:54:47;13.30;99.90
2056;DHT22;1033;52.560;13.374;2022-10-31T02:57:19;13.30;99.90
2056;DHT22;1033;52.560;13.374;2022-10-31T02:59:55;13.40;99.90
2056;DHT22;1033;52.560;13.374;2022-10-31T03:02:46;13.50;99.90
2056;DHT22;1033;52.560;13.374;2022-10-31T03:05:36;13.50;99.90
2056;DHT22;1033;52.560;13.374;2022-10-31T03:08:21;13.50;99.90
2056;DHT22;1033;52.560;13.374;2022-10-31T03:10:57;13.30;99.90
2056;DHT22;1033;52.560;13.374;2022-10-31T03:13:33;13.20;99.90
2056;DHT22;1033;52.560;13.374;2022-10-31T03:16:11;13.40;99.90
2056;DHT22;1033;52.560;13.374;2022-10-31T03:18:48;13.50;99.90
2056;DHT22;1033;52.560;13.374;2022-10-31T03:21:25;13.40;99.90
2056;DHT22;1033;52.560;13.374;2022-10-31T03:23:59;13.40;99.90
2056;DHT22;1033;52.560;13.374;2022-10-31T03:26:31;13.50;99.90
2056;DHT22;1033;52.560;13.374;2022-10-31T03:29:05;13.30;99.90
2056;DHT22;1033;52.560;13.374;2022-10-31T03:31:44;13.30;99.90
2056;DHT22;1033;52.560;13.374;2022-10-31T03:34:19;13.40;99.90
2056;DHT22;1033;52.560;13.374;2022-10-31T03:36:52;13.40;99.90
2056;DHT22;1033;52.560;13.374;2022-10-31T03:39:24;13.40;99.90
2056;DHT22;1033;52.560;13.374;2022-10-31T03:41:58;13.30;99.90
2056;DHT22;1033;52.560;13.374;2022-10-31T03:44:32;13.20;99.90
2056;DHT22;1033;52.560;13.374;2022-10-31T03:47:03;13.30;99.90
2056;DHT22;1033;52.560;13.374;2022-10-31T03:49:33;13.50;99.90
2056;DHT22;1033;52.560;13.374;2022-10-31T03:52:12;13.50;99.90
2056;DHT22;1033;52.560;13.374;2022-10-31T03:54:52;13.50;99.90
2056;DHT22;1033;52.560;13.374;2022-10-31T03:57:34;13.50;99.90
2056;DHT22;1033;52.560;13.374;2022-10-31T04:00:11;13.60;99.90
2056;DHT22;1033;52.560;13.374;2022-10-31T04:02:49;13.70;99.90
2056;DHT22;1033;52.560;13.374;2022-10-31T04:05:27;13.60;99.90
2056;DHT22;1033;52.560;13.374;2022-10-31T04:08:03;13.50;99.90
2056;DHT22;1033;52.560;13.374;2022-10-31T04:10:37;13.30;99.90
2056;DHT22;1033;52.560;13.374;2022-10-31T04:13:50;13.30;99.90
2056;DHT22;1033;52.560;13.374;2022-10-31T04:16:14;13.50;99.90
2056;DHT22;1033;52.560;13.374;2022-10-31T04:18:44;13.40;99.90
2056;DHT22;1033;52.560;13.374;2022-10-31T04:21:15;13.40;99.90
2056;DHT22;1033;52.560;13.374;2022-10-31T04:23:46;13.40;99.90
2056;DHT22;1033;52.560;13.374;2022-10-31T04:30:58;13.20;99.90
2056;DHT22;1033;52.560;13.374;2022-10-31T04:33:27;13.50;99.90
2056;DHT22;1033;52.560;13.374;2022-10-31T04:35:56;13.50;99.90
2056;DHT22;1033;52.560;13.374;2022-10-31T04:38:28;13.40;99.90
2056;DHT22;1033;52.560;13.374;2022-10-31T04:40:59;13.30;99.90
2056;DHT22;1033;52.560;13.374;2022-10-31T04:43:47;13.40;99.90
2056;DHT22;1033;52.560;13.374;2022-10-31T04:46:16;13.60;99.90
2056;DHT22;1033;52.560;13.374;2022-10-31T04:48:45;13.50;99.90
2056;DHT22;1033;52.560;13.374;2022-10-31T04:51:15;13.20;99.90
2056;DHT22;1033;52.560;13.374;2022-10-31T04:53:44;13.40;99.90
2056;DHT22;1033;52.560;13.374;2022-10-31T04:56:29;13.40;99.90
2056;DHT22;1033;52.560;13.374;2022-10-31T04:59:01;13.10;99.90
2056;DHT22;1033;52.560;13.374;2022-10-31T05:01:43;12.80;99.90
2056;DHT22;1033;52.560;13.374;2022-10-31T05:04:12;12.70;99.90
2056;DHT22;1033;52.560;13.374;2022-10-31T05:06:41;12.80;99.90
2056;DHT22;1033;52.560;13.374;2022-10-31T05:09:10;12.70;99.90
2056;DHT22;1033;52.560;13.374;2022-10-31T05:11:40;12.70;99.90
2056;DHT22;1033;52.560;13.374;2022-10-31T05:14:27;12.70;99.90
2056;DHT22;1033;52.560;13.374;2022-10-31T05:17:16;12.70;99.90
2056;DHT22;1033;52.560;13.374;2022-10-31T05:20:08;12.80;99.90
2056;DHT22;1033;52.560;13.374;2022-10-31T05:22:57;12.80;99.90
2056;DHT22;1033;52.560;13.374;2022-10-31T05:25:28;12.80;99.90
2056;DHT22;1033;52.560;13.374;2022-10-31T05:28:03;12.70;99.90
2056;DHT22;1033;52.560;13.374;2022-10-31T05:30:33;12.80;99.90
2056;DHT22;1033;52.560;13.374;2022-10-31T05:33:05;12.90;99.90
2056;DHT22;1033;52.560;13.374;2022-10-31T05:36:09;12.80;99.90
2056;DHT22;1033;52.560;13.374;2022-10-31T05:38:50;12.90;99.90
2056;DHT22;1033;52.560;13.374;2022-10-31T05:41:36;12.80;99.90
2056;DHT22;1033;52.560;13.374;2022-10-31T05:44:15;12.80;99.90
2056;DHT22;1033;52.560;13.374;2022-10-31T05:47:07;13.30;99.90
2056;DHT22;1033;52.560;13.374;2022-10-31T05:50:11;13.50;99.90
2056;DHT22;1033;52.560;13.374;2022-10-31T05:52:53;13.70;99.90
2056;DHT22;1033;52.560;13.374;2022-10-31T05:55:30;13.60;99.90
2056;DHT22;1033;52.560;13.374;2022-10-31T05:58:08;13.50;99.90
2056;DHT22;1033;52.560;13.374;2022-10-31T06:00:41;13.60;99.90
2056;DHT22;1033;52.560;13.374;2022-10-31T06:03:11;13.90;99.90
2056;DHT22;1033;52.560;13.374;2022-10-31T06:05:46;14.10;99.90
2056;DHT22;1033;52.560;13.374;2022-10-31T06:08:23;14.00;99.90
2056;DHT22;1033;52.560;13.374;2022-10-31T06:10:54;13.90;99.90
2056;DHT22;1033;52.560;13.374;2022-10-31T06:13:44;13.90;99.90
2056;DHT22;1033;52.560;13.374;2022-10-31T06:16:22;13.80;99.90
2056;DHT22;1033;52.560;13.374;2022-10-31T06:18:54;13.90;99.90
2056;DHT22;1033;52.560;13.374;2022-10-31T06:21:24;14.20;99.90
2056;DHT22;1033;52.560;13.374;2022-10-31T06:23:53;14.10;99.90
2056;DHT22;1033;52.560;13.374;2022-10-31T06:26:58;14.10;99.90
2056;DHT22;1033;52.560;13.374;2022-10-31T06:29:27;14.20;99.90
2056;DHT22;1033;52.560;13.374;2022-10-31T06:32:11;14.20;99.90
2056;DHT22;1033;52.560;13.374;2022-10-31T06:34:44;14.30;99.90
2056;DHT22;1033;52.560;13.374;2022-10-31T06:37:23;14.30;99.90
2056;DHT22;1033;52.560;13.374;2022-10-31T06:40:00;14.30;99.90
2056;DHT22;1033;52.560;13.374;2022-10-31T06:42:46;14.00;99.90
2056;DHT22;1033;52.560;13.374;2022-10-31T06:45:19;13.90;99.90
2056;DHT22;1033;52.560;13.374;2022-10-31T06:48:19;14.00;99.90
2056;DHT22;1033;52.560;13.374;2022-10-31T06:51:12;14.00;99.90
2056;DHT22;1033;52.560;13.374;2022-10-31T06:53:41;14.10;99.90
2056;DHT22;1033;52.560;13.374;2022-10-31T06:56:12;14.20;99.90
2056;DHT22;1033;52.560;13.374;2022-10-31T06:58:46;14.50;99.90
2056;DHT22;1033;52.560;13.374;2022-10-31T07:01:19;14.20;99.90
2056;DHT22;1033;52.560;13.374;2022-10-31T07:03:50;14.50;99.90
2056;DHT22;1033;52.560;13.374;2022-10-31T07:06:19;14.20;99.90
2056;DHT22;1033;52.560;13.374;2022-10-31T07:08:49;14.00;99.90
2056;DHT22;1033;52.560;13.374;2022-10-31T07:11:18;14.30;99.90
2056;DHT22;1033;52.560;13.374;2022-10-31T07:13:48;14.50;99.90
2056;DHT22;1033;52.560;13.374;2022-10-31T07:16:17;14.50;99.90
2056;DHT22;1033;52.560;13.374;2022-10-31T07:18:46;14.60;99.90
2056;DHT22;1033;52.560;13.374;2022-10-31T07:21:18;14.80;99.90
2056;DHT22;1033;52.560;13.374;2022-10-31T07:23:48;14.70;99.90
2056;DHT22;1033;52.560;13.374;2022-10-31T07:26:35;15.00;99.90
2056;DHT22;1033;52.560;13.374;2022-10-31T07:29:04;15.00;99.90
2056;DHT22;1033;52.560;13.374;2022-10-31T07:31:33;15.20;99.90
2056;DHT22;1033;52.560;13.374;2022-10-31T07:34:09;15.40;99.90
2056;DHT22;1033;52.560;13.374;2022-10-31T07:36:58;15.50;99.90
2056;DHT22;1033;52.560;13.374;2022-10-31T07:39:27;15.30;99.90
2056;DHT22;1033;52.560;13.374;2022-10-31T07:41:58;15.40;99.90
2056;DHT22;1033;52.560;13.374;2022-10-31T07:44:28;15.50;99.90
2056;DHT22;1033;52.560;13.374;2022-10-31T07:47:20;15.30;99.90
2056;DHT22;1033;52.560;13.374;2022-10-31T07:50:23;15.30;99.90
2056;DHT22;1033;52.560;13.374;2022-10-31T07:53:13;15.50;99.90
2056;DHT22;1033;52.560;13.374;2022-10-31T07:55:43;15.20;99.90
2056;DHT22;1033;52.560;13.374;2022-10-31T07:58:15;15.20;99.90
2056;DHT22;1033;52.560;13.374;2022-10-31T08:00:48;14.90;99.90
2056;DHT22;1033;52.560;13.374;2022-10-31T08:03:28;14.70;99.90
2056;DHT22;1033;52.560;13.374;2022-10-31T08:06:16;15.00;99.90
2056;DHT22;1033;52.560;13.374;2022-10-31T08:09:02;15.30;99.90
2056;DHT22;1033;52.560;13.374;2022-10-31T08:11:32;15.10;99.90
2056;DHT22;1033;52.560;13.374;2022-10-31T08:14:02;15.20;99.90
2056;DHT22;1033;52.560;13.374;2022-10-31T08:16:31;15.20;99.90
2056;DHT22;1033;52.560;13.374;2022-10-31T08:19:03;15.40;99.90
2056;DHT22;1033;52.560;13.374;2022-10-31T08:21:37;15.30;99.90
2056;DHT22;1033;52.560;13.374;2022-10-31T08:24:09;15.30;99.90
2056;DHT22;1033;52.560;13.374;2022-10-31T08:26:40;15.70;99.90
2056;DHT22;1033;52.560;13.374;2022-10-31T08:29:10;15.60;99.90
2056;DHT22;1033;52.560;13.374;2022-10-31T08:31:40;15.60;99.90
2056;DHT22;1033;52.560;13.374;2022-10-31T08:34:29;15.50;99.90
2056;DHT22;1033;52.560;13.374;2022-10-31T08:37:18;15.50;99.90
2056;DHT22;1033;52.560;13.374;2022-10-31T08:39:57;15.20;99.90
2056;DHT22;1033;52.560;13.374;2022-10-31T08:42:40;15.20;99.90
2056;DHT22;1033;52.560;13.374;2022-10-31T08:45:09;15.40;99.90
2056;DHT22;1033;52.560;13.374;2022-10-31T08:47:39;15.30;99.90
2056;DHT22;1033;52.560;13.374;2022-10-31T08:50:08;15.20;99.90
2056;DHT22;1033;52.560;13.374;2022-10-31T08:52:38;15.20;99.90
2056;DHT22;1033;52.560;13.374;2022-10-31T08:55:28;15.30;99.90
2056;DHT22;1033;52.560;13.374;2022-10-31T08:58:03;15.70;99.90
2056;DHT22;1033;52.560;13.374;2022-10-31T09:00:40;15.50;99.90
2056;DHT22;1033;52.560;13.374;2022-10-31T09:03:15;15.50;99.90
2056;DHT22;1033;52.560;13.374;2022-10-31T09:05:46;15.60;99.90
2056;DHT22;1033;52.560;13.374;2022-10-31T09:08:16;15.50;99.90
2056;DHT22;1033;52.560;13.374;2022-10-31T09:10:48;16.00;99.90
2056;DHT22;1033;52.560;13.374;2022-10-31T09:13:33;16.00;99.90
2056;DHT22;1033;52.560;13.374;2022-10-31T09:16:26;15.80;99.90
2056;DHT22;1033;52.560;13.374;2022-10-31T09:18:55;15.90;99.90
2056;DHT22;1033;52.560;13.374;2022-10-31T09:21:25;16.00;99.90
2056;DHT22;1033;52.560;13.374;2022-10-31T09:23:54;16.00;99.90
2056;DHT22;1033;52.560;13.374;2022-10-31T09:26:24;15.70;99.90
2056;DHT22;1033;52.560;13.374;2022-10-31T09:29:07;15.70;99.90
2056;DHT22;1033;52.560;13.374;2022-10-31T09:31:38;15.70;99.90
2056;DHT22;1033;52.560;13.374;2022-10-31T09:34:33;15.80;99.90
2056;DHT22;1033;52.560;13.374;2022-10-31T09:37:05;15.70;99.90
2056;DHT22;1033;52.560;13.374;2022-10-31T09:39:35;15.90;99.90
2056;DHT22;1033;52.560;13.374;2022-10-31T09:42:41;15.90;99.90
2056;DHT22;1033;52.560;13.374;2022-10-31T09:45:27;16.10;99.90
2056;DHT22;1033;52.560;13.374;2022-10-31T09:48:23;16.40;99.90
2056;DHT22;1033;52.560;13.374;2022-10-31T09:51:15;16.40;99.90
2056;DHT22;1033;52.560;13.374;2022-10-31T09:54:15;16.30;99.90
2056;DHT22;1033;52.560;13.374;2022-10-31T09:56:48;16.30;99.90
2056;DHT22;1033;52.560;13.374;2022-10-31T09:59:24;16.40;99.90
2056;DHT22;1033;52.560;13.374;2022-10-31T10:02:01;16.60;99.90
2056;DHT22;1033;52.560;13.374;2022-10-31T10:04:38;16.70;99.90
2056;DHT22;1033;52.560;13.374;2022-10-31T10:07:23;17.00;99.90
2056;DHT22;1033;52.560;13.374;2022-10-31T10:10:47;17.00;99.90
2056;DHT22;1033;52.560;13.374;2022-10-31T10:13:50;16.90;99.90
2056;DHT22;1033;52.560;13.374;2022-10-31T10:16:38;17.10;99.90
2056;DHT22;1033;52.560;13.374;2022-10-31T10:19:32;17.20;99.90
2056;DHT22;1033;52.560;13.374;2022-10-31T10:22:14;17.50;99.90
2056;DHT22;1033;52.560;13.374;2022-10-31T10:24:59;17.70;99.90
2056;DHT22;1033;52.560;13.374;2022-10-31T10:27:49;17.80;99.90
2056;DHT22;1033;52.560;13.374;2022-10-31T10:30:35;17.80;99.90
2056;DHT22;1033;52.560;13.374;2022-10-31T10:33:14;17.70;99.90
2056;DHT22;1033;52.560;13.374;2022-10-31T10:35:53;17.80;99.90
2056;DHT22;1033;52.560;13.374;2022-10-31T10:38:33;17.80;99.90
2056;DHT22;1033;52.560;13.374;2022-10-31T10:41:11;17.70;99.90
2056;DHT22;1033;52.560;13.374;2022-10-31T10:43:44;17.60;99.90
2056;DHT22;1033;52.560;13.374;2022-10-31T10:46:19;17.60;99.90
2056;DHT22;1033;52.560;13.374;2022-10-31T10:49:16;17.70;99.90
2056;DHT22;1033;52.560;13.374;2022-10-31T10:51:51;17.90;99.90
2056;DHT22;1033;52.560;13.374;2022-10-31T10:54:54;18.00;99.90
2056;DHT22;1033;52.560;13.374;2022-10-31T10:57:38;18.00;99.90
2056;DHT22;1033;52.560;13.374;2022-10-31T11:00:22;18.20;99.90
2056;DHT22;1033;52.560;13.374;2022-10-31T11:02:53;18.10;99.90
2056;DHT22;1033;52.560;13.374;2022-10-31T11:05:30;18.00;99.90
2056;DHT22;1033;52.560;13.374;2022-10-31T11:08:05;18.00;99.90
2056;DHT22;1033;52.560;13.374;2022-10-31T11:10:35;18.00;99.90
2056;DHT22;1033;52.560;13.374;2022-10-31T11:13:20;18.20;99.90
2056;DHT22;1033;52.560;13.374;2022-10-31T11:15:55;18.10;99.90
2056;DHT22;1033;52.560;13.374;2022-10-31T11:18:30;18.10;99.90
2056;DHT22;1033;52.560;13.374;2022-10-31T11:21:03;18.00;99.90
2056;DHT22;1033;52.560;13.374;2022-10-31T11:23:43;18.10;99.90
2056;DHT22;1033;52.560;13.374;2022-10-31T11:26:19;18.30;99.90
2056;DHT22;1033;52.560;13.374;2022-10-31T11:28:56;18.40;99.90
2056;DHT22;1033;52.560;13.374;2022-10-31T11:31:27;18.40;99.90
2056;DHT22;1033;52.560;13.374;2022-10-31T11:33:58;18.60;99.90
2056;DHT22;1033;52.560;13.374;2022-10-31T11:36:34;18.60;99.90
2056;DHT22;1033;52.560;13.374;2022-10-31T11:39:15;18.70;99.90
2056;DHT22;1033;52.560;13.374;2022-10-31T11:41:48;18.60;99.90
2056;DHT22;1033;52.560;13.374;2022-10-31T11:44:20;18.60;99.90
2056;DHT22;1033;52.560;13.374;2022-10-31T11:46:54;18.60;99.90
2056;DHT22;1033;52.560;13.374;2022-10-31T11:49:29;18.50;99.90
2056;DHT22;1033;52.560;13.374;2022-10-31T11:52:08;18.20;99.90
2056;DHT22;1033;52.560;13.374;2022-10-31T11:54:47;18.10;99.90
2056;DHT22;1033;52.560;13.374;2022-10-31T11:57:23;18.20;99.90
2056;DHT22;1033;52.560;13.374;2022-10-31T11:59:55;18.40;99.90
2056;DHT22;1033;52.560;13.374;2022-10-31T12:02:26;18.40;99.90
2056;DHT22;1033;52.560;13.374;2022-10-31T12:05:07;18.60;99.90
2056;DHT22;1033;52.560;13.374;2022-10-31T12:07:48;18.50;99.90
2056;DHT22;1033;52.560;13.374;2022-10-31T12:10:21;18.40;99.90
2056;DHT22;1033;52.560;13.374;2022-10-31T12:13:07;18.40;99.90
2056;DHT22;1033;52.560;13.374;2022-10-31T12:16:34;18.60;99.90
2056;DHT22;1033;52.560;13.374;2022-10-31T12:19:12;18.70;99.90
2056;DHT22;1033;52.560;13.374;2022-10-31T12:21:59;18.80;99.90
2056;DHT22;1033;52.560;13.374;2022-10-31T12:24:51;18.70;99.90
2056;DHT22;1033;52.560;13.374;2022-10-31T12:27:39;18.60;99.90
2056;DHT22;1033;52.560;13.374;2022-10-31T12:30:40;18.50;99.90
2056;DHT22;1033;52.560;13.374;2022-10-31T12:33:34;18.50;99.90
2056;DHT22;1033;52.560;13.374;2022-10-31T12:39:24;18.60;99.90
2056;DHT22;1033;52.560;13.374;2022-10-31T12:42:09;18.70;99.90
2056;DHT22;1033;52.560;13.374;2022-10-31T12:45:12;18.70;99.90
2056;DHT22;1033;52.560;13.374;2022-10-31T12:48:06;18.60;99.90
2056;DHT22;1033;52.560;13.374;2022-10-31T12:50:55;18.50;99.90
2056;DHT22;1033;52.560;13.374;2022-10-31T12:53:40;18.60;99.90
2056;DHT22;1033;52.560;13.374;2022-10-31T12:56:31;18.60;99.90
2056;DHT22;1033;52.560;13.374;2022-10-31T12:59:12;18.60;99.90
2056;DHT22;1033;52.560;13.374;2022-10-31T13:01:52;18.80;99.90
2056;DHT22;1033;52.560;13.374;2022-10-31T13:04:37;18.90;99.90
2056;DHT22;1033;52.560;13.374;2022-10-31T13:07:13;19.10;99.90
2056;DHT22;1033;52.560;13.374;2022-10-31T13:09:53;19.30;99.90
2056;DHT22;1033;52.560;13.374;2022-10-31T13:12:27;19.30;99.90
2056;DHT22;1033;52.560;13.374;2022-10-31T13:15:12;19.30;99.90
2056;DHT22;1033;52.560;13.374;2022-10-31T13:17:47;19.40;99.90
2056;DHT22;1033;52.560;13.374;2022-10-31T13:20:24;19.20;99.90
2056;DHT22;1033;52.560;13.374;2022-10-31T13:23:05;19.00;99.90
2056;DHT22;1033;52.560;13.374;2022-10-31T13:26:03;18.90;99.90
2056;DHT22;1033;52.560;13.374;2022-10-31T13:28:44;18.90;99.90
2056;DHT22;1033;52.560;13.374;2022-10-31T13:31:22;18.80;99.90
2056;DHT22;1033;52.560;13.374;2022-10-31T13:33:54;18.80;99.90
2056;DHT22;1033;52.560;13.374;2022-10-31T13:36:34;18.80;99.90
2056;DHT22;1033;52.560;13.374;2022-10-31T13:39:18;18.90;99.90
2056;DHT22;1033;52.560;13.374;2022-10-31T13:42:01;18.90;99.90
2056;DHT22;1033;52.560;13.374;2022-10-31T13:44:37;19.00;99.90
2056;DHT22;1033;52.560;13.374;2022-10-31T13:47:22;19.10;99.90
2056;DHT22;1033;52.560;13.374;2022-10-31T13:50:04;19.00;99.90
2056;DHT22;1033;52.560;13.374;2022-10-31T13:52:46;18.90;99.90
2056;DHT22;1033;52.560;13.374;2022-10-31T13:55:37;18.90;99.90
2056;DHT22;1033;52.560;13.374;2022-10-31T13:58:23;19.00;99.90
2056;DHT22;1033;52.560;13.374;2022-10-31T14:01:11;18.80;99.90
2056;DHT22;1033;52.560;13.374;2022-10-31T14:03:53;18.60;99.90
2056;DHT22;1033;52.560;13.374;2022-10-31T14:06:48;18.30;99.90
2056;DHT22;1033;52.560;13.374;2022-10-31T14:09:31;17.70;99.90
2056;DHT22;1033;52.560;13.374;2022-10-31T14:12:06;17.50;99.90
2056;DHT22;1033;52.560;13.374;2022-10-31T14:14:44;17.20;99.90
2056;DHT22;1033;52.560;13.374;2022-10-31T14:17:19;17.20;99.90
2056;DHT22;1033;52.560;13.374;2022-10-31T14:22:52;16.60;99.90
2056;DHT22;1033;52.560;13.374;2022-10-31T14:25:26;16.30;99.90
2056;DHT22;1033;52.560;13.374;2022-10-31T14:27:57;16.20;99.90
2056;DHT22;1033;52.560;13.374;2022-10-31T14:30:30;16.00;99.90
2056;DHT22;1033;52.560;13.374;2022-10-31T14:33:01;16.00;99.90
2056;DHT22;1033;52.560;13.374;2022-10-31T14:35:53;16.00;99.90
2056;DHT22;1033;52.560;13.374;2022-10-31T14:38:47;16.10;99.90
2056;DHT22;1033;52.560;13.374;2022-10-31T14:44:52;16.20;99.90
2056;DHT22;1033;52.560;13.374;2022-10-31T14:47:50;16.30;99.90
2056;DHT22;1033;52.560;13.374;2022-10-31T14:50:43;16.10;99.90
2056;DHT22;1033;52.560;13.374;2022-10-31T14:53:22;16.00;99.90
2056;DHT22;1033;52.560;13.374;2022-10-31T14:55:55;15.80;99.90
2056;DHT22;1033;52.560;13.374;2022-10-31T14:58:35;15.70;99.90
2056;DHT22;1033;52.560;13.374;2022-10-31T15:01:15;16.00;99.90
2056;DHT22;1033;52.560;13.374;2022-10-31T15:03:51;16.20;99.90
2056;DHT22;1033;52.560;13.374;2022-10-31T15:06:45;16.20;99.90
2056;DHT22;1033;52.560;13.374;2022-10-31T15:09:25;16.40;99.90
2056;DHT22;1033;52.560;13.374;2022-10-31T15:11:55;16.10;99.90
2056;DHT22;1033;52.560;13.374;2022-10-31T15:14:28;15.80;99.90
2056;DHT22;1033;52.560;13.374;2022-10-31T15:17:02;15.80;99.90
2056;DHT22;1033;52.560;13.374;2022-10-31T15:19:33;16.00;99.90
2056;DHT22;1033;52.560;13.374;2022-10-31T15:22:03;16.10;99.90
2056;DHT22;1033;52.560;13.374;2022-10-31T15:24:36;15.90;99.90
2056;DHT22;1033;52.560;13.374;2022-10-31T15:27:11;15.50;99.90
2056;DHT22;1033;52.560;13.374;2022-10-31T15:29:48;15.20;99.90
2056;DHT22;1033;52.560;13.374;2022-10-31T15:32:22;15.20;99.90
2056;DHT22;1033;52.560;13.374;2022-10-31T15:34:53;14.90;99.90
2056;DHT22;1033;52.560;13.374;2022-10-31T15:37:25;14.80;99.90
2056;DHT22;1033;52.560;13.374;2022-10-31T15:40:07;14.70;99.90
2056;DHT22;1033;52.560;13.374;2022-10-31T15:42:45;14.70;99.90
2056;DHT22;1033;52.560;13.374;2022-10-31T15:45:21;14.60;99.90
2056;DHT22;1033;52.560;13.374;2022-10-31T15:47:56;14.50;99.90
2056;DHT22;1033;52.560;13.374;2022-10-31T15:50:30;14.90;99.90
2056;DHT22;1033;52.560;13.374;2022-10-31T15:53:05;15.10;99.90
2056;DHT22;1033;52.560;13.374;2022-10-31T15:55:49;14.90;99.90
2056;DHT22;1033;52.560;13.374;2022-10-31T15:58:21;14.70;99.90
2056;DHT22;1033;52.560;13.374;2022-10-31T16:00:58;14.70;99.90
2056;DHT22;1033;52.560;13.374;2022-10-31T16:03:30;14.60;99.90
2056;DHT22;1033;52.560;13.374;2022-10-31T16:06:02;14.50;99.90
2056;DHT22;1033;52.560;13.374;2022-10-31T16:08:34;14.50;99.90
2056;DHT22;1033;52.560;13.374;2022-10-31T16:11:20;14.50;99.90
2056;DHT22;1033;52.560;13.374;2022-10-31T16:13:55;14.50;99.90
2056;DHT22;1033;52.560;13.374;2022-10-31T16:16:28;14.40;99.90
2056;DHT22;1033;52.560;13.374;2022-10-31T16:19:04;14.40;99.90
2056;DHT22;1033;52.560;13.374;2022-10-31T16:21:41;14.70;99.90
2056;DHT22;1033;52.560;13.374;2022-10-31T16:24:17;14.80;99.90
2056;DHT22;1033;52.560;13.374;2022-10-31T16:26:53;14.80;99.90
2056;DHT22;1033;52.560;13.374;2022-10-31T16:29:28;14.60;99.90
2056;DHT22;1033;52.560;13.374;2022-10-31T16:32:03;14.50;99.90
2056;DHT22;1033;52.560;13.374;2022-10-31T16:34:32;14.40;99.90
2056;DHT22;1033;52.560;13.374;2022-10-31T16:37:02;14.40;99.90
2056;DHT22;1033;52.560;13.374;2022-10-31T16:39:31;14.50;99.90
2056;DHT22;1033;52.560;13.374;2022-10-31T16:42:01;14.50;99.90
2056;DHT22;1033;52.560;13.374;2022-10-31T16:44:30;14.70;99.90
2056;DHT22;1033;52.560;13.374;2022-10-31T16:47:11;14.60;99.90
2056;DHT22;1033;52.560;13.374;2022-10-31T16:49:43;14.50;99.90
2056;DHT22;1033;52.560;13.374;2022-10-31T16:52:14;14.40;99.90
2056;DHT22;1033;52.560;13.374;2022-10-31T16:54:43;14.30;99.90
2056;DHT22;1033;52.560;13.374;2022-10-31T16:57:15;14.50;99.90
2056;DHT22;1033;52.560;13.374;2022-10-31T16:59:51;14.40;99.90
2056;DHT22;1033;52.560;13.374;2022-10-31T17:02:21;14.50;99.90
2056;DHT22;1033;52.560;13.374;2022-10-31T17:04:51;14.40;99.90
2056;DHT22;1033;52.560;13.374;2022-10-31T17:07:23;14.20;99.90
2056;DHT22;1033;52.560;13.374;2022-10-31T17:09:52;14.10;99.90